Time;durP1;ratioP1;P1;durP2;ratioP2;P2;SDS_P1;SDS_P2;PMS_P1;PMS_P2;Temp;Humidity;BMP_temperature;BMP_pressure;BME280_temperature;BME280_humidity;BME280_pressure;Samples;Min_cycle;Max_cycle;Signal;HPM_P1;HPM_P2
2022/12/16 00:01:24;;;;;;;129.27;53.40;;;;;;;-8.26;99.66;100234.47;3477455;83;99092;-82
2022/12/16 00:06:29;;;;;;;266.60;89.13;;;;;;;-8.27;99.64;100236.87;3479860;84;25888;-82
2022/12/16 00:11:31;;;;;;;164.27;56.67;;;;;;;-8.26;99.76;100241.14;3480066;82;99285;-81
2022/12/16 00:16:32;;;;;;;185.30;67.00;;;;;;;-8.29;99.47;100229.66;3445778;84;25937;-81
2022/12/16 00:21:33;;;;;;;172.95;66.35;;;;;;;-8.32;99.23;100224.83;3485917;82;99081;-81
2022/12/16 00:26:33;;;;;;;150.53;60.00;;;;;;;-8.32;99.01;100226.16;3488641;82;30632;-80
2022/12/16 00:31:34;;;;;;;151.87;58.23;;;;;;;-8.34;99.03;100238.42;3473064;82;99174;-80
2022/12/16 00:36:35;;;;;;;144.23;52.00;;;;;;;-8.34;99.43;100242.98;3477130;84;26344;-81
2022/12/16 00:41:36;;;;;;;114.85;48.45;;;;;;;-8.33;99.43;100259.25;3477549;83;99134;-80
2022/12/16 00:46:37;;;;;;;111.53;47.17;;;;;;;-8.34;99.59;100274.45;3484670;82;26920;-81
2022/12/16 00:51:37;;;;;;;133.37;52.60;;;;;;;-8.35;99.74;100268.06;3472980;83;99338;-79
2022/12/16 00:56:39;;;;;;;121.73;47.20;;;;;;;-8.36;99.66;100268.58;3484336;84;34893;-79
2022/12/16 01:01:39;;;;;;;112.77;48.63;;;;;;;-8.35;99.96;100266.73;3485753;82;99212;-81
2022/12/16 01:06:40;;;;;;;127.30;52.17;;;;;;;-8.35;100.00;100256.05;3485847;82;34815;-81
2022/12/16 01:11:41;;;;;;;120.43;47.13;;;;;;;-8.35;100.00;100246.16;3476991;84;99379;-81
2022/12/16 01:16:42;;;;;;;132.53;52.00;;;;;;;-8.34;100.00;100246.44;3484390;84;34836;-81
2022/12/16 01:21:42;;;;;;;134.50;54.53;;;;;;;-8.34;100.00;100250.98;3464994;82;99576;-79
2022/12/16 01:26:43;;;;;;;130.63;51.13;;;;;;;-8.34;100.00;100253.66;3476806;84;34106;-79
2022/12/16 01:31:44;;;;;;;135.63;49.87;;;;;;;-8.32;100.00;100252.86;3467313;82;99296;-79
2022/12/16 01:36:45;;;;;;;122.53;49.90;;;;;;;-8.34;100.00;100250.44;3476471;84;33177;-79
2022/12/16 01:41:46;;;;;;;148.13;54.97;;;;;;;-8.34;100.00;100237.09;3474427;82;99535;-80
2022/12/16 01:46:54;;;;;;;133.97;53.03;;;;;;;-8.33;100.00;100239.24;3493398;82;33022;-80
2022/12/16 01:52:00;;;;;;;126.67;48.73;;;;;;;-8.34;100.00;100220.30;3476996;82;99208;-80
2022/12/16 01:57:15;;;;;;;128.65;48.42;;;;;;;-8.34;100.00;100215.75;3481501;82;25808;-80
2022/12/16 02:02:16;;;;;;;130.73;50.10;;;;;;;-8.32;100.00;100219.49;3480442;82;99399;-80
2022/12/16 02:07:16;;;;;;;128.17;48.07;;;;;;;-8.36;100.00;100231.22;3483973;82;33244;-80
2022/12/16 02:13:01;;;;;;;130.13;47.63;;;;;;;-8.36;100.00;100225.07;3484644;83;100002;-80
2022/12/16 02:18:08;;;;;;;121.37;44.17;;;;;;;-8.38;99.95;100224.02;3476503;83;25924;-79
2022/12/16 02:23:35;;;;;;;117.17;41.83;;;;;;;-8.46;99.71;100199.69;3468292;82;99189;-80
2022/12/16 02:29:10;;;;;;;100.40;43.37;;;;;;;-8.48;99.64;100183.13;3479748;82;26194;-80
2022/12/16 02:34:50;;;;;;;78.87;31.77;;;;;;;-8.50;99.68;100191.92;3477885;82;99265;-80
2022/12/16 02:39:58;;;;;;;99.57;37.07;;;;;;;-8.49;100.00;100197.53;3480949;82;32597;-79
2022/12/16 02:45:11;;;;;;;89.20;37.30;;;;;;;-8.44;100.00;100190.89;3473214;82;98953;-79
2022/12/16 02:50:29;;;;;;;104.33;41.20;;;;;;;-8.42;100.00;100187.41;3487729;84;26185;-79
2022/12/16 02:55:47;;;;;;;95.22;36.73;;;;;;;-8.35;100.00;100173.33;3478683;82;99392;-80
2022/12/16 03:01:28;;;;;;;104.87;40.30;;;;;;;-8.26;100.00;100162.41;3441642;84;25796;-78
2022/12/16 03:06:32;;;;;;;107.87;41.90;;;;;;;-8.17;100.00;100174.17;3485715;84;28139;-80
2022/12/16 03:11:34;;;;;;;104.72;41.70;;;;;;;-8.08;100.00;100161.94;3456813;82;99413;-79
2022/12/16 03:16:35;;;;;;;112.67;44.93;;;;;;;-8.00;100.00;100157.41;3481011;84;28124;-81
2022/12/16 03:21:53;;;;;;;99.80;39.30;;;;;;;-7.93;100.00;100154.77;3479876;82;99408;-81
2022/12/16 03:27:17;;;;;;;101.30;43.63;;;;;;;-7.86;100.00;100163.88;3473114;84;25832;-81
2022/12/16 03:32:38;;;;;;;103.72;39.75;;;;;;;-7.80;100.00;100154.80;3475084;82;99964;-81
2022/12/16 03:37:42;;;;;;;117.80;45.60;;;;;;;-7.71;100.00;100164.70;3482928;84;26219;-81
2022/12/16 03:42:44;;;;;;;100.80;39.38;;;;;;;-7.62;100.00;100160.45;3449562;83;99578;-81
2022/12/16 03:47:49;;;;;;;103.70;44.30;;;;;;;-7.55;100.00;100152.16;3476723;84;26155;-80
2022/12/16 03:52:50;;;;;;;114.05;43.08;;;;;;;-7.49;100.00;100153.24;3481187;82;99564;-78
2022/12/16 03:57:51;;;;;;;115.50;41.70;;;;;;;-7.42;100.00;100142.30;3486930;82;32455;-78
2022/12/16 04:02:52;;;;;;;111.60;45.47;;;;;;;-7.35;100.00;100151.66;3472056;82;99508;-80
2022/12/16 04:07:53;;;;;;;113.80;44.40;;;;;;;-7.25;100.00;100155.65;3485370;84;32452;-79
2022/12/16 04:29:00;;;;;;;111.13;47.07;;;;;;;-7.12;100.00;100138.27;3478800;84;26661;-79
